Time;durP1;ratioP1;P1;durP2;ratioP2;P2;SDS_P1;SDS_P2;PMS_P1;PMS_P2;Temp;Humidity;BMP_temperature;BMP_pressure;BME280_temperature;BME280_humidity;BME280_pressure;Samples;Min_cycle;Max_cycle;Signal;HPM_P1;HPM_P2
2022/03/07 00:00:36;;;;;;;13.30;7.93;;;2.00;99.90;;;;;;5069240;28;20229;-85
2022/03/07 00:03:03;;;;;;;12.40;7.93;;;1.90;99.90;;;;;;5084197;28;20225;-85
2022/03/07 00:05:30;;;;;;;14.23;8.13;;;2.00;99.90;;;;;;5065374;28;20210;-83
2022/03/07 00:07:57;;;;;;;15.43;9.60;;;1.80;99.90;;;;;;5068559;28;20244;-85
2022/03/07 00:10:44;;;;;;;12.17;8.33;;;1.70;99.90;;;;;;5076257;28;20300;-84
2022/03/07 00:13:11;;;;;;;12.43;8.03;;;1.60;99.90;;;;;;5079178;28;20315;-83
2022/03/07 00:15:38;;;;;;;14.80;8.97;;;1.60;99.90;;;;;;5069427;28;20566;-84
2022/03/07 00:18:05;;;;;;;13.60;8.50;;;1.40;99.90;;;;;;5079514;28;20241;-84
2022/03/07 00:20:32;;;;;;;13.27;8.73;;;1.30;99.90;;;;;;5076277;28;20214;-82
2022/03/07 00:23:01;;;;;;;14.03;9.60;;;1.30;99.90;;;;;;5074572;28;20231;-84
2022/03/07 00:25:28;;;;;;;16.83;9.33;;;1.20;99.90;;;;;;5070886;28;20354;-83
2022/03/07 00:27:55;;;;;;;16.60;9.33;;;1.10;99.90;;;;;;5111579;28;20209;-85
2022/03/07 00:30:22;;;;;;;14.10;10.03;;;1.10;99.90;;;;;;5092720;28;20291;-85
2022/03/07 00:32:49;;;;;;;13.90;9.40;;;1.00;99.90;;;;;;5086708;28;20254;-84
2022/03/07 00:35:16;;;;;;;14.27;9.47;;;1.00;99.90;;;;;;5089865;28;20211;-83
2022/03/07 00:37:43;;;;;;;12.80;8.83;;;1.00;99.90;;;;;;5110224;28;20242;-84
2022/03/07 00:40:10;;;;;;;15.60;9.47;;;0.90;99.90;;;;;;5092664;28;20209;-85
2022/03/07 00:42:38;;;;;;;14.70;9.63;;;0.90;99.90;;;;;;5078670;28;20355;-83
2022/03/07 00:45:09;;;;;;;15.80;8.97;;;0.80;99.90;;;;;;5071393;28;20201;-84
2022/03/07 00:47:36;;;;;;;17.53;10.30;;;0.80;99.90;;;;;;5078912;28;20704;-84
2022/03/07 00:50:04;;;;;;;16.40;10.03;;;0.70;99.90;;;;;;5067051;28;20299;-85
2022/03/07 00:52:31;;;;;;;13.93;9.27;;;0.70;99.90;;;;;;5072798;28;20268;-84
2022/03/07 00:54:58;;;;;;;19.57;10.10;;;0.70;99.90;;;;;;5078801;28;20617;-85
2022/03/07 00:57:25;;;;;;;14.70;10.00;;;0.70;99.90;;;;;;5082175;28;20196;-84
2022/03/07 00:59:52;;;;;;;18.37;10.73;;;0.70;99.90;;;;;;5072642;28;20210;-84
2022/03/07 01:02:19;;;;;;;18.13;10.00;;;0.70;99.90;;;;;;5079346;28;20388;-85
2022/03/07 01:04:46;;;;;;;15.70;10.10;;;0.70;99.90;;;;;;5070916;28;20225;-86
2022/03/07 01:07:14;;;;;;;17.37;10.37;;;0.70;99.90;;;;;;5092563;28;20215;-85
2022/03/07 01:09:41;;;;;;;16.10;10.63;;;0.70;99.90;;;;;;5082624;28;20203;-84
2022/03/07 01:12:08;;;;;;;21.20;9.13;;;0.70;99.90;;;;;;5078477;28;20239;-85
2022/03/07 01:14:35;;;;;;;14.67;10.07;;;0.70;99.90;;;;;;5082107;28;20273;-84
2022/03/07 01:17:02;;;;;;;15.93;10.03;;;0.70;99.90;;;;;;5077158;28;20271;-86
2022/03/07 01:19:29;;;;;;;15.67;10.20;;;0.70;99.90;;;;;;5074001;28;20235;-83
2022/03/07 01:21:56;;;;;;;17.83;9.80;;;0.70;99.90;;;;;;5091923;28;20298;-85
2022/03/07 01:24:23;;;;;;;15.30;10.20;;;0.70;99.90;;;;;;5076599;28;20270;-84
2022/03/07 01:26:49;;;;;;;19.43;10.20;;;0.70;99.90;;;;;;5085355;28;20269;-85
2022/03/07 01:29:16;;;;;;;20.23;10.03;;;0.70;99.90;;;;;;5078381;28;20212;-84
2022/03/07 01:31:46;;;;;;;17.27;10.13;;;0.70;99.90;;;;;;5092670;28;20319;-82
2022/03/07 01:34:13;;;;;;;16.00;9.43;;;0.80;99.90;;;;;;5083905;28;20225;-86
2022/03/07 01:36:41;;;;;;;16.70;9.97;;;0.60;99.90;;;;;;5076137;28;20209;-85
2022/03/07 01:39:08;;;;;;;17.93;10.27;;;0.60;99.90;;;;;;5099615;28;20208;-84
2022/03/07 01:41:35;;;;;;;20.37;9.93;;;0.60;99.90;;;;;;5078315;28;20217;-84
2022/03/07 01:44:02;;;;;;;15.50;10.30;;;0.70;99.90;;;;;;5078606;28;20211;-85
2022/03/07 01:46:31;;;;;;;20.27;10.97;;;0.60;99.90;;;;;;5073400;28;20213;-84
2022/03/07 01:48:58;;;;;;;16.50;10.03;;;0.60;99.90;;;;;;5089939;28;20216;-84
2022/03/07 01:51:26;;;;;;;19.90;11.57;;;0.70;99.90;;;;;;5078536;28;20200;-85
2022/03/07 01:53:53;;;;;;;21.97;10.47;;;0.60;99.90;;;;;;5072651;28;20230;-84
2022/03/07 01:56:20;;;;;;;19.27;10.60;;;0.70;99.90;;;;;;5099154;28;20205;-86
2022/03/07 01:58:47;;;;;;;18.43;10.27;;;0.70;99.90;;;;;;5078052;28;20329;-85
2022/03/07 02:01:14;;;;;;;19.33;10.83;;;0.70;99.90;;;;;;5070176;28;20632;-84
2022/03/07 02:03:41;;;;;;;17.10;10.47;;;0.80;99.90;;;;;;5071480;28;20220;-84
2022/03/07 02:06:08;;;;;;;15.57;9.97;;;0.70;99.90;;;;;;5068354;28;20242;-85
2022/03/07 02:08:35;;;;;;;15.70;9.77;;;0.70;99.90;;;;;;5082769;28;20316;-85
2022/03/07 02:11:02;;;;;;;15.63;9.40;;;0.70;99.90;;;;;;5089819;28;20692;-84
2022/03/07 02:13:30;;;;;;;18.60;10.23;;;0.60;99.90;;;;;;5082188;28;20212;-86
2022/03/07 02:15:57;;;;;;;15.60;9.27;;;0.50;99.90;;;;;;5076127;28;20239;-84
2022/03/07 02:18:29;;;;;;;17.33;10.10;;;0.40;99.90;;;;;;5087008;28;20201;-83
2022/03/07 02:21:07;;;;;;;15.53;9.67;;;0.40;99.90;;;;;;5088207;28;20226;-84
2022/03/07 02:23:36;;;;;;;18.77;10.03;;;0.30;99.90;;;;;;5078443;28;20243;-85
2022/03/07 02:26:15;;;;;;;19.20;10.13;;;0.20;99.90;;;;;;5076850;28;20204;-84
2022/03/07 02:28:44;;;;;;;15.10;10.13;;;0.10;99.90;;;;;;5077608;28;20199;-83
2022/03/07 02:31:19;;;;;;;18.23;10.20;;;0.10;99.90;;;;;;5077580;28;20235;-85
2022/03/07 02:33:48;;;;;;;18.47;10.97;;;0.00;99.90;;;;;;5065618;28;20614;-86
2022/03/07 02:36:15;;;;;;;15.67;9.90;;;-0.10;99.90;;;;;;5076489;28;20211;-84
2022/03/07 02:38:42;;;;;;;16.00;8.73;;;-0.10;99.90;;;;;;5088899;28;20205;-84
2022/03/07 02:41:08;;;;;;;21.33;10.33;;;-0.10;99.90;;;;;;5089481;28;20295;-84
2022/03/07 02:43:36;;;;;;;16.73;10.37;;;-0.20;99.90;;;;;;5068753;28;20235;-85
2022/03/07 02:46:04;;;;;;;20.17;11.30;;;-0.30;99.90;;;;;;5078544;28;20296;-84
2022/03/07 02:48:32;;;;;;;18.50;10.37;;;-0.30;99.90;;;;;;5076331;28;20565;-84
2022/03/07 02:50:59;;;;;;;18.20;10.23;;;-0.40;99.90;;;;;;5094864;28;20235;-85
2022/03/07 02:53:27;;;;;;;21.07;10.20;;;-0.40;99.90;;;;;;5075385;28;20244;-84
2022/03/07 02:55:54;;;;;;;22.53;11.07;;;-0.40;99.90;;;;;;5078222;28;20276;-84
2022/03/07 02:58:22;;;;;;;18.43;11.00;;;-0.50;99.90;;;;;;5081923;28;20203;-86
2022/03/07 03:00:49;;;;;;;18.40;10.13;;;-0.60;99.90;;;;;;5074173;28;20684;-85
2022/03/07 03:03:16;;;;;;;17.17;10.73;;;-0.60;99.90;;;;;;5099323;28;20412;-85
2022/03/07 03:05:43;;;;;;;16.67;10.30;;;-0.70;99.90;;;;;;5079599;28;20215;-86
2022/03/07 03:08:10;;;;;;;15.33;10.03;;;-0.70;99.90;;;;;;5075312;28;20270;-85
2022/03/07 03:10:39;;;;;;;18.00;10.20;;;-0.80;99.90;;;;;;5086654;28;20620;-84
2022/03/07 03:13:06;;;;;;;19.30;10.50;;;-0.80;99.90;;;;;;5077598;28;20204;-85
2022/03/07 03:15:33;;;;;;;21.03;10.60;;;-0.90;99.90;;;;;;5083216;28;20232;-83
2022/03/07 03:17:59;;;;;;;17.90;10.80;;;-0.90;99.90;;;;;;5075416;28;20298;-86
2022/03/07 03:20:26;;;;;;;18.17;10.57;;;-1.00;99.90;;;;;;5088388;28;20207;-85
2022/03/07 03:22:53;;;;;;;21.87;11.17;;;-1.00;99.90;;;;;;5072971;28;20237;-84
2022/03/07 03:25:20;;;;;;;21.00;10.13;;;-1.00;99.90;;;;;;5071450;28;20203;-86
2022/03/07 03:27:47;;;;;;;21.10;10.60;;;-1.10;99.90;;;;;;5071297;28;20270;-86
2022/03/07 03:30:15;;;;;;;15.93;10.10;;;-1.00;99.90;;;;;;5087530;28;20613;-86
2022/03/07 03:32:42;;;;;;;17.23;10.53;;;-1.20;99.90;;;;;;5086343;28;20287;-83
2022/03/07 03:35:09;;;;;;;17.17;10.47;;;-1.20;99.90;;;;;;5074837;28;20213;-86
2022/03/07 03:37:36;;;;;;;20.33;10.77;;;-1.30;99.90;;;;;;5076304;28;20215;-86
2022/03/07 03:40:05;;;;;;;20.30;10.67;;;-1.30;99.90;;;;;;5074457;28;20265;-84
2022/03/07 03:42:32;;;;;;;17.63;10.43;;;-1.30;99.90;;;;;;5074636;28;20342;-87
2022/03/07 03:44:59;;;;;;;22.00;11.30;;;-1.30;99.90;;;;;;5065271;28;20244;-85
2022/03/07 03:47:26;;;;;;;21.10;11.43;;;-1.30;99.90;;;;;;5078231;28;20265;-84
2022/03/07 03:49:53;;;;;;;20.37;11.13;;;-1.40;99.90;;;;;;5072727;28;20713;-84
2022/03/07 03:52:20;;;;;;;20.97;10.87;;;-1.30;99.90;;;;;;5072975;28;20410;-84
2022/03/07 03:54:48;;;;;;;19.40;10.57;;;-1.30;99.90;;;;;;5074744;28;20705;-84
2022/03/07 03:57:15;;;;;;;18.53;11.10;;;-1.40;99.90;;;;;;5066413;28;20211;-85
2022/03/07 03:59:45;;;;;;;19.77;11.27;;;-1.40;99.90;;;;;;5084773;28;20274;-85
2022/03/07 04:02:12;;;;;;;20.77;11.73;;;-1.40;99.90;;;;;;5092321;28;20255;-85
2022/03/07 04:04:39;;;;;;;21.20;11.77;;;-1.40;99.90;;;;;;5089127;28;20262;-84
2022/03/07 04:07:06;;;;;;;18.73;10.37;;;-1.50;99.90;;;;;;5061997;28;20218;-84
2022/03/07 04:09:33;;;;;;;19.13;10.73;;;-1.50;99.90;;;;;;5063161;28;20239;-83
2022/03/07 04:12:00;;;;;;;21.30;11.07;;;-1.50;99.90;;;;;;5097989;28;20291;-85
2022/03/07 04:14:27;;;;;;;21.00;12.57;;;-1.50;99.90;;;;;;5079858;28;20731;-85
2022/03/07 04:16:55;;;;;;;19.80;10.93;;;-1.60;99.90;;;;;;5093126;28;20254;-84
2022/03/07 04:19:25;;;;;;;17.37;11.57;;;-1.60;99.90;;;;;;5072160;28;20804;-84
2022/03/07 04:21:52;;;;;;;19.83;11.33;;;-1.70;99.90;;;;;;5090604;28;20232;-84
2022/03/07 04:24:20;;;;;;;18.40;9.47;;;-1.70;99.90;;;;;;5074416;28;20302;-84
2022/03/07 04:26:47;;;;;;;19.97;11.60;;;-1.70;99.90;;;;;;5073631;28;20317;-86
2022/03/07 04:29:14;;;;;;;20.77;11.47;;;-1.80;99.90;;;;;;5099718;28;20216;-84
2022/03/07 04:31:43;;;;;;;17.93;10.90;;;-1.80;99.90;;;;;;5076093;28;20664;-84
2022/03/07 04:34:12;;;;;;;18.53;10.07;;;-1.90;99.90;;;;;;5081618;28;20306;-84
2022/03/07 04:36:41;;;;;;;16.20;10.30;;;-1.90;99.90;;;;;;5079357;28;20626;-84
2022/03/07 04:39:09;;;;;;;19.83;10.50;;;-1.90;99.90;;;;;;5084362;28;20219;-84
2022/03/07 04:41:39;;;;;;;18.17;10.73;;;-1.90;99.90;;;;;;5081030;28;20324;-83
2022/03/07 04:44:06;;;;;;;19.63;10.97;;;-1.90;99.90;;;;;;5083778;28;20235;-83
2022/03/07 04:46:33;;;;;;;19.60;11.03;;;-2.00;99.90;;;;;;5101596;28;20635;-84
2022/03/07 04:49:01;;;;;;;16.77;9.93;;;-2.00;99.90;;;;;;5096335;28;20211;-83
2022/03/07 04:51:27;;;;;;;17.67;9.90;;;-2.00;99.90;;;;;;5088477;28;22198;-83
2022/03/07 04:53:54;;;;;;;20.87;12.13;;;-2.10;99.90;;;;;;5076778;28;20210;-85
2022/03/07 04:56:21;;;;;;;23.40;11.77;;;-2.10;99.90;;;;;;5081495;28;20202;-84
2022/03/07 04:58:48;;;;;;;26.83;11.93;;;-2.10;99.90;;;;;;5069337;28;20247;-83
2022/03/07 05:01:15;;;;;;;19.83;11.63;;;-2.10;99.90;;;;;;5102634;28;20796;-84
2022/03/07 05:03:42;;;;;;;21.53;11.10;;;-2.10;99.90;;;;;;5082528;28;20877;-84
2022/03/07 05:06:09;;;;;;;25.13;12.90;;;-2.10;99.90;;;;;;5094904;28;20241;-83
2022/03/07 05:08:39;;;;;;;23.03;12.07;;;-2.10;99.90;;;;;;5080359;28;20676;-85
2022/03/07 05:11:06;;;;;;;22.67;11.50;;;-2.10;99.90;;;;;;5079973;28;20297;-84
2022/03/07 05:13:33;;;;;;;23.50;11.27;;;-2.10;99.90;;;;;;5098222;28;20547;-84
2022/03/07 05:16:00;;;;;;;25.20;11.90;;;-2.10;99.90;;;;;;5098523;28;20254;-84
2022/03/07 05:18:27;;;;;;;21.70;11.53;;;-2.10;99.90;;;;;;5073674;28;20230;-84
2022/03/07 05:20:54;;;;;;;27.80;12.07;;;-2.10;99.90;;;;;;5076146;28;20291;-84
2022/03/07 05:23:26;;;;;;;25.50;11.33;;;-2.20;99.90;;;;;;5078416;28;20709;-85
2022/03/07 05:25:53;;;;;;;25.70;12.63;;;-2.10;99.90;;;;;;5075494;28;20297;-85
2022/03/07 05:28:19;;;;;;;25.97;11.80;;;-2.10;99.90;;;;;;5079697;28;20213;-84
2022/03/07 05:30:46;;;;;;;22.60;12.47;;;-2.10;99.90;;;;;;5077397;28;20709;-85
2022/03/07 05:33:13;;;;;;;26.23;12.00;;;-2.10;99.90;;;;;;5077714;28;20314;-85
2022/03/07 05:35:40;;;;;;;21.73;11.97;;;-2.10;99.90;;;;;;5078085;28;20207;-86
2022/03/07 05:38:08;;;;;;;25.47;12.37;;;-2.10;99.90;;;;;;5073088;28;20297;-84
2022/03/07 05:40:35;;;;;;;21.07;11.83;;;-2.10;99.90;;;;;;5081244;28;20204;-84
2022/03/07 05:43:05;;;;;;;20.93;12.17;;;-2.00;99.90;;;;;;5075159;28;20270;-84
2022/03/07 05:45:34;;;;;;;27.13;12.97;;;-2.10;99.90;;;;;;5070404;28;20710;-83
2022/03/07 05:48:01;;;;;;;20.37;12.03;;;-2.20;99.90;;;;;;5101450;28;20207;-86
2022/03/07 05:50:32;;;;;;;27.47;11.90;;;-2.20;99.90;;;;;;5100520;28;20211;-85
2022/03/07 05:52:58;;;;;;;27.17;11.43;;;-2.20;99.90;;;;;;5081801;28;20289;-84
2022/03/07 05:55:26;;;;;;;18.73;11.63;;;-2.20;99.90;;;;;;5082669;28;20233;-85
2022/03/07 05:57:59;;;;;;;18.70;11.60;;;-2.20;99.90;;;;;;5076283;28;20645;-86
2022/03/07 06:00:28;;;;;;;22.90;12.10;;;-2.30;99.90;;;;;;5095456;28;20225;-85
2022/03/07 06:02:55;;;;;;;25.60;11.90;;;-2.30;99.90;;;;;;5080422;28;20226;-86
2022/03/07 06:05:25;;;;;;;21.30;10.40;;;-2.30;99.90;;;;;;5078425;28;20738;-85
2022/03/07 06:07:53;;;;;;;27.43;11.40;;;-2.30;99.90;;;;;;5078510;28;20226;-85
2022/03/07 06:10:20;;;;;;;23.60;11.50;;;-2.40;99.90;;;;;;5081034;28;20676;-84
2022/03/07 06:12:47;;;;;;;25.53;11.37;;;-2.30;99.90;;;;;;5092431;28;20261;-84
2022/03/07 06:15:18;;;;;;;24.33;11.33;;;-2.30;99.90;;;;;;5079808;28;20246;-84
2022/03/07 06:18:12;;;;;;;23.40;12.53;;;-2.30;99.90;;;;;;5084054;28;20210;-85
2022/03/07 06:20:41;;;;;;;31.83;12.37;;;-2.40;99.90;;;;;;5073025;28;20210;-84
2022/03/07 06:23:09;;;;;;;23.77;11.87;;;-2.40;99.90;;;;;;5099590;28;20226;-85
2022/03/07 06:25:35;;;;;;;21.03;11.37;;;-2.40;99.90;;;;;;5081948;28;20194;-85
2022/03/07 06:28:03;;;;;;;29.67;12.90;;;-2.40;99.90;;;;;;5096598;28;20264;-84
2022/03/07 06:30:33;;;;;;;28.37;13.43;;;-2.30;99.90;;;;;;5077723;28;20563;-84
2022/03/07 06:33:00;;;;;;;31.70;12.83;;;-2.30;99.90;;;;;;5072061;28;20234;-86
2022/03/07 06:35:27;;;;;;;26.07;13.50;;;-2.20;99.90;;;;;;5081252;28;20259;-84
2022/03/07 06:37:55;;;;;;;32.17;13.57;;;-2.20;99.90;;;;;;5081622;28;20203;-86
2022/03/07 06:40:22;;;;;;;30.50;14.17;;;-2.10;99.90;;;;;;5075464;28;20562;-86
2022/03/07 06:42:50;;;;;;;27.57;13.70;;;-2.10;99.90;;;;;;5077199;28;20254;-83
2022/03/07 06:45:17;;;;;;;28.23;13.83;;;-2.00;99.90;;;;;;5075862;28;20223;-85
2022/03/07 06:47:46;;;;;;;32.43;16.13;;;-1.90;99.90;;;;;;5079404;28;20889;-86
2022/03/07 06:50:15;;;;;;;33.77;16.20;;;-1.90;99.90;;;;;;5077502;28;20283;-87
2022/03/07 06:52:43;;;;;;;34.97;15.17;;;-1.80;99.90;;;;;;5073457;28;20197;-86
2022/03/07 06:55:10;;;;;;;28.27;14.77;;;-1.80;99.90;;;;;;5086989;28;20277;-86
2022/03/07 06:57:38;;;;;;;38.37;18.70;;;-1.70;99.90;;;;;;5078824;28;20224;-86
2022/03/07 07:00:08;;;;;;;52.20;22.13;;;-1.40;99.90;;;;;;5088060;28;20230;-87
2022/03/07 07:02:35;;;;;;;59.30;24.43;;;-0.70;99.90;;;;;;5077061;28;20663;-86
2022/03/07 07:05:03;;;;;;;55.47;25.07;;;0.20;99.90;;;;;;5081783;28;20224;-87
2022/03/07 07:07:31;;;;;;;54.47;22.17;;;1.20;99.90;;;;;;5092086;28;20276;-86
2022/03/07 07:09:58;;;;;;;40.93;20.00;;;2.00;99.90;;;;;;5080339;28;20261;-87
2022/03/07 07:12:25;;;;;;;27.87;15.67;;;2.70;99.90;;;;;;5103068;28;20199;-86
2022/03/07 07:14:52;;;;;;;18.40;12.10;;;3.40;99.90;;;;;;5085818;28;20204;-88
2022/03/07 07:17:18;;;;;;;15.00;10.73;;;4.10;99.90;;;;;;5087795;28;20238;-88
2022/03/07 07:19:46;;;;;;;17.07;10.77;;;4.70;99.90;;;;;;5080553;28;20206;-89
2022/03/07 07:22:14;;;;;;;15.57;10.27;;;5.30;99.90;;;;;;5093292;28;20245;-87
2022/03/07 07:24:43;;;;;;;17.10;9.73;;;5.70;99.90;;;;;;5089114;28;20265;-88
2022/03/07 07:27:10;;;;;;;14.57;10.30;;;6.10;99.90;;;;;;5077190;28;20204;-88
2022/03/07 07:29:41;;;;;;;15.37;10.00;;;6.60;99.90;;;;;;5080427;28;20212;-88
2022/03/07 07:32:08;;;;;;;14.80;9.33;;;6.90;99.90;;;;;;5088045;28;20249;-86
2022/03/07 07:34:36;;;;;;;15.03;9.97;;;6.70;99.90;;;;;;5085586;28;20228;-86
2022/03/07 07:37:04;;;;;;;14.10;9.57;;;7.40;99.90;;;;;;5083627;28;20230;-89
2022/03/07 07:39:42;;;;;;;13.77;9.73;;;;;;;;;;5069296;28;20281;-87
2022/03/07 07:42:09;;;;;;;13.40;9.63;;;7.70;99.90;;;;;;5078860;28;20969;-88
2022/03/07 07:44:36;;;;;;;13.70;9.20;;;8.00;99.90;;;;;;5092216;28;20329;-87
2022/03/07 07:47:03;;;;;;;12.23;9.63;;;8.20;99.90;;;;;;5089753;28;20220;-88
2022/03/07 07:49:31;;;;;;;14.80;10.40;;;8.10;99.90;;;;;;5079403;28;20234;-88
2022/03/07 07:51:58;;;;;;;15.27;10.53;;;7.70;99.90;;;;;;5081155;28;20211;-88
2022/03/07 07:54:25;;;;;;;19.60;10.73;;;7.10;99.90;;;;;;5077331;28;20226;-87
2022/03/07 07:56:52;;;;;;;16.07;9.83;;;6.60;99.90;;;;;;5086482;28;20232;-87
2022/03/07 07:59:19;;;;;;;17.43;12.27;;;5.90;99.90;;;;;;5078920;28;20200;-87
2022/03/07 08:01:46;;;;;;;20.03;11.77;;;5.50;99.90;;;;;;5087294;28;20301;-88
2022/03/07 08:04:13;;;;;;;17.57;11.90;;;5.00;99.90;;;;;;5078445;28;20333;-87
2022/03/07 08:06:40;;;;;;;17.87;11.03;;;4.60;99.90;;;;;;5079729;28;20518;-88
2022/03/07 08:09:08;;;;;;;18.30;11.13;;;4.20;99.90;;;;;;5082083;28;20263;-87
2022/03/07 08:11:36;;;;;;;22.67;12.63;;;4.00;99.90;;;;;;5087552;28;20208;-87
2022/03/07 08:14:02;;;;;;;19.07;12.40;;;3.70;99.90;;;;;;5065689;28;20212;-88
2022/03/07 08:16:31;;;;;;;17.20;12.27;;;3.60;99.90;;;;;;5077017;28;20242;-87
2022/03/07 08:18:59;;;;;;;20.10;11.63;;;3.40;99.90;;;;;;5085527;28;20678;-88
2022/03/07 08:21:26;;;;;;;24.17;13.43;;;2.70;99.90;;;;;;5082669;28;20229;-86
2022/03/07 08:23:54;;;;;;;18.93;12.33;;;3.00;99.90;;;;;;5078774;28;20253;-87
2022/03/07 08:26:22;;;;;;;23.90;13.20;;;2.90;99.90;;;;;;5078907;28;20321;-88
2022/03/07 08:28:49;;;;;;;20.07;13.33;;;2.80;99.90;;;;;;5078209;28;20211;-86
2022/03/07 08:31:17;;;;;;;21.10;13.40;;;2.70;99.90;;;;;;5076238;28;20251;-86
2022/03/07 08:33:46;;;;;;;20.83;12.93;;;2.70;99.90;;;;;;5093437;28;20206;-87
2022/03/07 08:36:12;;;;;;;26.20;13.33;;;2.70;99.90;;;;;;5079145;28;20276;-87
2022/03/07 08:38:39;;;;;;;20.23;12.53;;;2.60;99.90;;;;;;5077323;28;20669;-87
2022/03/07 08:41:07;;;;;;;19.90;13.03;;;2.50;99.90;;;;;;5078246;28;20199;-87
2022/03/07 08:43:35;;;;;;;23.67;12.43;;;2.60;99.90;;;;;;5081694;28;20230;-87
2022/03/07 08:46:02;;;;;;;24.93;13.77;;;2.60;99.90;;;;;;5080247;28;20230;-88
2022/03/07 08:48:30;;;;;;;24.97;14.17;;;2.60;99.90;;;;;;5079337;28;20216;-88
2022/03/07 08:50:57;;;;;;;26.03;13.07;;;2.50;99.90;;;;;;5079847;28;20623;-88
2022/03/07 08:53:24;;;;;;;21.50;13.03;;;2.50;99.90;;;;;;5080388;28;20206;-88
2022/03/07 08:55:51;;;;;;;26.53;14.53;;;2.60;99.90;;;;;;5077536;28;20212;-88
2022/03/07 08:58:38;;;;;;;25.57;13.60;;;2.60;99.90;;;;;;5083419;28;20211;-88
2022/03/07 09:01:06;;;;;;;22.67;12.63;;;2.60;99.90;;;;;;5081894;28;20220;-87
2022/03/07 09:03:34;;;;;;;21.80;14.00;;;2.60;99.90;;;;;;5084797;28;20232;-87
2022/03/07 09:06:03;;;;;;;22.13;14.40;;;2.70;99.90;;;;;;5077705;28;20192;-89
2022/03/07 09:08:30;;;;;;;23.87;13.60;;;2.70;99.90;;;;;;5075423;28;20684;-87
2022/03/07 09:10:57;;;;;;;24.87;14.70;;;2.70;99.90;;;;;;5086353;28;20247;-87
2022/03/07 09:13:24;;;;;;;23.33;13.33;;;2.80;99.90;;;;;;5084474;28;20325;-86
2022/03/07 09:15:52;;;;;;;21.87;13.20;;;2.90;99.90;;;;;;5078432;28;20760;-87
2022/03/07 09:18:25;;;;;;;20.47;12.70;;;3.00;99.90;;;;;;5084126;28;20215;-87
2022/03/07 09:20:54;;;;;;;20.20;12.80;;;3.10;99.90;;;;;;5098873;28;20229;-86
2022/03/07 09:23:23;;;;;;;22.63;12.77;;;3.30;99.90;;;;;;5079269;28;20216;-87
2022/03/07 09:25:52;;;;;;;19.73;12.10;;;3.60;99.90;;;;;;5087430;28;20244;-87
2022/03/07 09:28:19;;;;;;;19.77;11.73;;;4.00;99.90;;;;;;5086066;28;20594;-86
2022/03/07 09:30:46;;;;;;;18.63;10.50;;;4.50;99.90;;;;;;5087301;28;20662;-87
2022/03/07 09:33:14;;;;;;;17.47;10.20;;;5.10;99.90;;;;;;5090333;28;20228;-86
2022/03/07 09:35:41;;;;;;;16.37;10.67;;;5.40;99.90;;;;;;5078269;28;20192;-86
2022/03/07 09:38:07;;;;;;;14.93;10.30;;;5.70;99.90;;;;;;5078097;28;20212;-85
2022/03/07 09:40:34;;;;;;;17.73;11.03;;;6.10;99.90;;;;;;5082683;28;20209;-87
2022/03/07 09:43:03;;;;;;;13.63;10.10;;;6.40;99.90;;;;;;5084962;28;20214;-86
2022/03/07 09:45:30;;;;;;;14.70;10.17;;;6.60;99.90;;;;;;5080644;28;20232;-87
2022/03/07 09:47:57;;;;;;;17.03;10.43;;;6.80;99.90;;;;;;5082730;28;20793;-86
2022/03/07 09:50:24;;;;;;;14.00;10.73;;;7.00;99.90;;;;;;5095920;28;20277;-85
2022/03/07 09:52:56;;;;;;;15.87;9.23;;;7.20;99.90;;;;;;5076359;28;20618;-86
2022/03/07 09:55:23;;;;;;;16.13;9.27;;;7.40;99.90;;;;;;5084743;28;20206;-86
2022/03/07 09:57:51;;;;;;;15.07;9.77;;;7.20;99.90;;;;;;5088348;28;20214;-88
2022/03/07 10:00:19;;;;;;;14.93;9.53;;;7.10;99.90;;;;;;5090412;28;20219;-88
2022/03/07 10:03:02;;;;;;;13.50;10.43;;;7.10;99.90;;;;;;5093530;28;20213;-88
2022/03/07 10:05:33;;;;;;;13.87;10.17;;;6.80;99.90;;;;;;5093452;28;20292;-87
2022/03/07 10:08:00;;;;;;;18.60;11.50;;;6.60;99.90;;;;;;5089407;28;20205;-89
2022/03/07 10:10:32;;;;;;;13.77;9.00;;;6.50;99.90;;;;;;5089586;28;20228;-88
2022/03/07 10:13:06;;;;;;;11.10;8.90;;;6.50;99.90;;;;;;5089593;28;20205;-90
2022/03/07 10:15:33;;;;;;;16.63;10.47;;;6.30;99.90;;;;;;5090073;28;20233;-88
2022/03/07 10:18:01;;;;;;;12.17;9.17;;;6.20;99.90;;;;;;5092175;28;20239;-88
2022/03/07 10:20:28;;;;;;;9.70;8.53;;;6.20;99.90;;;;;;5088215;28;20212;-88
2022/03/07 10:22:59;;;;;;;14.33;10.00;;;6.10;99.90;;;;;;5083890;28;20660;-89
2022/03/07 10:25:33;;;;;;;15.73;10.60;;;6.00;99.90;;;;;;5093291;28;20241;-88
2022/03/07 10:28:02;;;;;;;13.07;8.93;;;6.00;99.90;;;;;;5092812;28;20224;-90
2022/03/07 10:30:32;;;;;;;13.30;8.10;;;6.00;99.90;;;;;;5083783;28;20250;-87
2022/03/07 10:33:11;;;;;;;11.80;8.30;;;6.00;99.90;;;;;;5099002;28;20232;-89
2022/03/07 10:35:48;;;;;;;9.53;7.50;;;5.90;99.90;;;;;;5094947;28;20207;-87
2022/03/07 10:38:20;;;;;;;12.53;8.27;;;5.90;99.90;;;;;;5111140;28;20236;-86
2022/03/07 10:40:53;;;;;;;11.57;8.73;;;5.90;99.90;;;;;;5097467;28;20201;-90
2022/03/07 10:43:23;;;;;;;14.07;9.27;;;5.90;99.90;;;;;;5094540;28;20226;-88
2022/03/07 10:45:55;;;;;;;12.03;8.30;;;5.80;99.90;;;;;;5095529;28;20238;-87
2022/03/07 10:48:27;;;;;;;12.03;7.93;;;5.80;99.90;;;;;;5080763;28;20215;-88
2022/03/07 10:50:58;;;;;;;13.23;8.43;;;5.80;99.90;;;;;;5076272;28;20298;-89
2022/03/07 10:53:26;;;;;;;10.43;7.73;;;5.70;99.90;;;;;;5083038;28;20203;-89
2022/03/07 10:55:55;;;;;;;10.90;7.43;;;5.80;99.90;;;;;;5071442;28;20665;-87
2022/03/07 10:58:27;;;;;;;12.27;8.50;;;5.80;99.90;;;;;;5093438;28;20225;-87
2022/03/07 11:00:56;;;;;;;14.10;7.97;;;5.80;99.90;;;;;;5084673;28;20232;-88
2022/03/07 11:03:30;;;;;;;12.73;8.27;;;5.80;99.90;;;;;;5098334;28;20215;-87
2022/03/07 11:05:59;;;;;;;13.53;9.17;;;5.80;99.90;;;;;;5078594;28;20252;-87
2022/03/07 11:08:27;;;;;;;10.70;8.03;;;5.90;99.90;;;;;;5072464;28;20571;-86
2022/03/07 11:10:56;;;;;;;11.40;8.47;;;6.10;99.90;;;;;;5094994;28;20196;-86
2022/03/07 11:13:29;;;;;;;13.63;8.10;;;6.30;99.90;;;;;;5081406;28;20271;-88
2022/03/07 11:15:58;;;;;;;13.40;7.80;;;6.40;99.90;;;;;;5079562;28;20219;-86
2022/03/07 11:18:29;;;;;;;11.33;8.17;;;6.60;99.90;;;;;;5084223;28;20691;-88
2022/03/07 11:20:58;;;;;;;12.60;8.57;;;6.80;99.90;;;;;;5079115;28;20200;-87
2022/03/07 11:23:26;;;;;;;10.93;7.83;;;7.00;99.90;;;;;;5110893;28;20220;-89
2022/03/07 11:25:57;;;;;;;10.43;8.30;;;7.20;99.90;;;;;;5080551;28;20233;-86
2022/03/07 11:28:29;;;;;;;11.70;7.97;;;7.40;99.90;;;;;;5089966;28;20211;-88
2022/03/07 11:30:56;;;;;;;10.97;7.73;;;7.60;99.90;;;;;;5069783;28;20225;-87
2022/03/07 11:33:33;;;;;;;11.73;7.83;;;7.80;99.90;;;;;;5079852;28;20229;-90
2022/03/07 11:36:04;;;;;;;11.33;7.80;;;8.00;99.90;;;;;;5085646;28;20231;-87
2022/03/07 11:38:32;;;;;;;12.83;7.70;;;8.20;99.90;;;;;;5078555;28;20212;-90
2022/03/07 11:41:11;;;;;;;9.83;7.67;;;8.30;99.90;;;;;;5089823;28;20200;-87
2022/03/07 11:43:47;;;;;;;9.90;8.20;;;8.50;99.90;;;;;;5076234;28;20225;-90
2022/03/07 11:46:27;;;;;;;10.33;8.27;;;8.60;99.90;;;;;;5100369;28;20229;-86
2022/03/07 11:48:54;;;;;;;12.37;7.80;;;8.40;99.90;;;;;;5075235;28;20198;-88
2022/03/07 11:51:27;;;;;;;11.00;8.03;;;8.40;99.90;;;;;;5072336;28;20596;-87
2022/03/07 11:53:55;;;;;;;9.10;7.20;;;8.30;99.90;;;;;;5060045;28;20243;-88
2022/03/07 11:56:26;;;;;;;9.43;7.70;;;8.20;99.90;;;;;;5089395;28;20276;-86
2022/03/07 11:58:55;;;;;;;10.00;7.40;;;8.20;99.90;;;;;;5063985;28;20221;-88
2022/03/07 12:01:28;;;;;;;10.20;7.03;;;8.20;99.90;;;;;;5096143;28;20230;-87
2022/03/07 12:04:18;;;;;;;9.40;6.93;;;8.20;99.90;;;;;;5088267;28;20209;-87
2022/03/07 12:06:47;;;;;;;9.07;6.80;;;8.10;99.90;;;;;;5100718;28;20229;-88
2022/03/07 12:09:25;;;;;;;7.93;6.73;;;8.10;99.90;;;;;;5088493;28;20195;-87
2022/03/07 12:12:07;;;;;;;16.20;6.60;;;8.20;99.90;;;;;;5076904;28;20199;-87
2022/03/07 12:14:43;;;;;;;8.20;5.77;;;8.40;99.90;;;;;;5093734;28;20214;-86
2022/03/07 12:17:17;;;;;;;8.70;6.30;;;8.70;99.90;;;;;;5096975;28;20296;-86
2022/03/07 12:19:53;;;;;;;11.20;6.27;;;8.80;99.90;;;;;;5083429;28;20263;-86
2022/03/07 12:22:25;;;;;;;10.93;6.57;;;9.10;99.90;;;;;;5069862;28;20424;-87
2022/03/07 12:24:54;;;;;;;8.53;6.80;;;9.10;99.90;;;;;;5092578;28;20550;-87
2022/03/07 12:27:23;;;;;;;12.83;6.87;;;9.30;99.90;;;;;;5083460;28;20212;-86
2022/03/07 12:29:54;;;;;;;10.93;7.10;;;9.80;99.90;;;;;;5073649;28;20205;-87
2022/03/07 12:32:21;;;;;;;10.40;6.70;;;9.80;99.90;;;;;;5068358;28;20266;-85
2022/03/07 12:34:49;;;;;;;10.00;6.97;;;9.80;99.90;;;;;;5078257;28;20709;-87
2022/03/07 12:37:20;;;;;;;8.90;6.70;;;10.10;99.90;;;;;;5078470;28;20742;-86
2022/03/07 12:39:49;;;;;;;11.63;6.50;;;10.10;99.90;;;;;;5077416;28;20247;-84
2022/03/07 12:42:18;;;;;;;8.97;6.23;;;10.30;99.90;;;;;;5094864;28;20660;-88
2022/03/07 12:44:47;;;;;;;9.07;5.97;;;10.30;99.90;;;;;;5095085;28;20290;-85